RJKA(METAR)
05/21 18:00
METAR RJKA 210900Z 35015KT CAVOK 23/13 Q1006 RMK A2971=
戻る
トップページへ戻る
IMOC Co,.Ltd.